createdAt,value
2023-02-11T00:00:09.811Z,34.97
2023-02-11T00:02:56.365Z,41.10
2023-02-11T00:05:42.887Z,31.47
2023-02-11T00:08:29.491Z,37.33
2023-02-11T00:11:16.109Z,36.67
2023-02-11T00:14:02.646Z,38.17
2023-02-11T00:16:49.233Z,34.60
2023-02-11T00:19:35.743Z,30.77
2023-02-11T00:22:22.254Z,30.50
2023-02-11T00:25:08.767Z,29.47
2023-02-11T00:27:55.305Z,32.63
2023-02-11T00:30:41.927Z,35.93
2023-02-11T00:33:28.586Z,35.83
2023-02-11T00:36:15.105Z,37.50
2023-02-11T00:39:01.646Z,36.60
2023-02-11T00:41:48.128Z,32.90
2023-02-11T00:44:34.667Z,30.83
2023-02-11T00:47:21.223Z,37.57
2023-02-11T00:50:07.798Z,36.10
2023-02-11T00:52:54.312Z,37.00
2023-02-11T00:55:40.831Z,34.67
2023-02-11T00:58:27.378Z,29.63
2023-02-11T01:01:13.928Z,38.70
2023-02-11T01:04:00.535Z,31.70
2023-02-11T01:06:47.054Z,38.70
2023-02-11T01:09:33.562Z,32.90
2023-02-11T01:12:20.042Z,34.13
2023-02-11T01:15:06.572Z,33.43
2023-02-11T01:17:53.204Z,36.97
2023-02-11T01:20:39.700Z,36.53
2023-02-11T01:23:26.246Z,31.77
2023-02-11T01:26:12.744Z,35.67
2023-02-11T01:28:59.235Z,36.97
2023-02-11T01:31:45.772Z,31.83
2023-02-11T01:34:32.355Z,31.10
2023-02-11T01:37:18.863Z,32.00
2023-02-11T01:40:05.351Z,32.17
2023-02-11T01:42:51.907Z,32.97
2023-02-11T01:45:38.388Z,32.93
2023-02-11T01:48:24.972Z,34.90
2023-02-11T01:51:11.466Z,38.83
2023-02-11T01:53:58.000Z,32.23
2023-02-11T01:56:44.490Z,36.57
2023-02-11T01:59:30.978Z,41.37
2023-02-11T02:02:17.523Z,33.20
2023-02-11T02:05:04.059Z,41.57
2023-02-11T02:07:50.607Z,39.53
2023-02-11T02:10:37.178Z,39.90
2023-02-11T02:13:23.665Z,52.27
2023-02-11T02:16:11.253Z,38.60
2023-02-11T02:18:57.735Z,57.23
2023-02-11T02:21:45.304Z,46.90
2023-02-11T02:24:31.796Z,45.77
2023-02-11T02:27:18.377Z,38.60
2023-02-11T02:30:04.898Z,38.73
2023-02-11T02:32:51.439Z,40.10
2023-02-11T02:35:38.004Z,63.83
2023-02-11T02:38:24.525Z,54.33
2023-02-11T02:41:11.092Z,71.17
2023-02-11T02:43:57.584Z,78.30
2023-02-11T02:46:44.155Z,65.47
2023-02-11T02:49:30.672Z,47.27
2023-02-11T02:52:17.204Z,42.17
2023-02-11T02:55:03.731Z,35.50
2023-02-11T02:57:50.222Z,35.50
2023-02-11T03:00:37.013Z,60.13
2023-02-11T03:03:23.546Z,42.90
2023-02-11T03:06:10.096Z,39.20
2023-02-11T03:08:56.622Z,45.13
2023-02-11T03:11:43.155Z,49.63
2023-02-11T03:14:29.714Z,51.47
2023-02-11T03:17:16.204Z,49.50
2023-02-11T03:20:02.773Z,37.30
2023-02-11T03:22:49.259Z,38.23
2023-02-11T03:25:35.801Z,50.10
2023-02-11T03:28:22.375Z,65.80
2023-02-11T03:31:10.026Z,54.87
2023-02-11T03:33:56.603Z,60.03
2023-02-11T03:36:43.115Z,56.23
2023-02-11T03:39:29.639Z,80.23
2023-02-11T03:42:16.186Z,80.90
2023-02-11T03:45:02.747Z,54.27
2023-02-11T03:47:49.308Z,69.80
2023-02-11T03:50:35.804Z,81.20
2023-02-11T03:53:22.344Z,71.80
2023-02-11T03:56:08.889Z,52.23
2023-02-11T03:58:55.534Z,52.47
2023-02-11T04:01:42.068Z,50.33
2023-02-11T04:04:28.565Z,51.47
2023-02-11T04:07:15.046Z,65.37
2023-02-11T04:10:01.594Z,75.57
2023-02-11T04:12:48.126Z,72.17
2023-02-11T04:15:34.686Z,61.47
2023-02-11T04:18:21.212Z,67.00
2023-02-11T04:21:07.703Z,67.63
2023-02-11T04:23:54.231Z,63.30
2023-02-11T04:26:40.832Z,65.37
2023-02-11T04:29:27.349Z,66.67
2023-02-11T04:32:13.933Z,61.80
2023-02-11T04:35:00.454Z,56.80
2023-02-11T04:37:47.035Z,56.20
2023-02-11T04:40:33.524Z,57.23
2023-02-11T04:43:20.104Z,63.73
2023-02-11T04:46:06.638Z,58.57
2023-02-11T04:48:53.203Z,60.07
2023-02-11T04:51:39.750Z,57.10
2023-02-11T04:54:26.300Z,62.27
2023-02-11T04:57:12.819Z,61.20
2023-02-11T04:59:59.387Z,54.07
2023-02-11T05:02:45.871Z,58.97
2023-02-11T05:05:32.583Z,61.97
2023-02-11T05:08:19.112Z,54.93
2023-02-11T05:11:06.679Z,56.90
2023-02-11T05:13:53.245Z,59.97
2023-02-11T05:16:39.863Z,57.57
2023-02-11T05:19:27.411Z,61.20
2023-02-11T05:22:13.893Z,55.20
2023-02-11T05:25:00.414Z,59.70
2023-02-11T05:27:46.932Z,62.83
2023-02-11T05:30:33.538Z,62.57
2023-02-11T05:33:20.062Z,61.30
2023-02-11T05:36:06.561Z,58.30
2023-02-11T05:38:53.066Z,52.47
2023-02-11T05:41:39.587Z,51.07
2023-02-11T05:44:26.070Z,57.50
2023-02-11T05:47:12.630Z,59.73
2023-02-11T05:49:59.160Z,59.67
2023-02-11T05:52:46.871Z,53.07
2023-02-11T05:55:33.493Z,54.17
2023-02-11T05:58:20.113Z,56.07
2023-02-11T06:01:06.595Z,61.37
2023-02-11T06:03:53.109Z,61.97
2023-02-11T06:06:39.652Z,57.20
2023-02-11T06:09:26.194Z,59.70
2023-02-11T06:12:12.721Z,59.33
2023-02-11T06:14:59.215Z,58.93
2023-02-11T06:17:45.751Z,58.30
2023-02-11T06:20:32.286Z,51.70
2023-02-11T06:23:18.848Z,49.03
2023-02-11T06:26:05.361Z,60.30
2023-02-11T06:28:51.921Z,51.43
2023-02-11T06:31:38.593Z,53.07
2023-02-11T06:34:25.203Z,55.33
2023-02-11T06:37:11.691Z,52.53
2023-02-11T06:39:58.254Z,54.97
2023-02-11T06:42:44.750Z,55.40
2023-02-11T06:45:31.300Z,61.00
2023-02-11T06:48:17.815Z,57.90
2023-02-11T06:51:04.349Z,51.93
2023-02-11T06:53:50.892Z,51.30
2023-02-11T06:56:37.452Z,55.73
2023-02-11T06:59:23.951Z,54.20
2023-02-11T07:02:10.525Z,55.87
2023-02-11T07:04:57.093Z,56.47
2023-02-11T07:07:43.595Z,49.63
2023-02-11T07:10:30.155Z,53.20
2023-02-11T07:13:16.742Z,52.50
2023-02-11T07:16:03.309Z,60.70
2023-02-11T07:18:49.867Z,63.47
2023-02-11T07:21:36.343Z,49.57
2023-02-11T07:24:23.153Z,63.27
2023-02-11T07:27:09.648Z,56.20
2023-02-11T07:29:56.171Z,45.07
2023-02-11T07:32:42.660Z,48.13
2023-02-11T07:35:29.211Z,48.53
2023-02-11T07:38:15.694Z,45.30
2023-02-11T07:41:02.192Z,42.63
2023-02-11T07:43:48.703Z,56.23
2023-02-11T07:46:35.310Z,59.37
2023-02-11T07:49:21.866Z,48.73
2023-02-11T07:52:08.357Z,46.67
2023-02-11T07:54:54.913Z,55.47
2023-02-11T07:57:41.438Z,49.50
2023-02-11T08:00:27.990Z,45.40
2023-02-11T08:03:14.484Z,48.33
2023-02-11T08:06:01.044Z,48.10
2023-02-11T08:08:47.526Z,47.80
2023-02-11T08:11:34.007Z,50.37
2023-02-11T08:14:20.529Z,46.10
2023-02-11T08:17:07.052Z,44.00
2023-02-11T08:19:53.569Z,46.50
2023-02-11T08:22:40.080Z,46.67
2023-02-11T08:25:26.587Z,43.47
2023-02-11T08:28:13.150Z,52.47
2023-02-11T08:30:59.673Z,43.37
2023-02-11T08:33:46.231Z,43.97
2023-02-11T08:36:32.740Z,43.07
2023-02-11T08:39:20.677Z,46.40
2023-02-11T08:42:07.543Z,42.43
2023-02-11T08:44:54.098Z,41.20
2023-02-11T08:47:40.628Z,46.63
2023-02-11T08:50:27.175Z,43.23
2023-02-11T08:53:13.683Z,46.70
2023-02-11T08:56:00.187Z,41.87
2023-02-11T08:58:46.991Z,38.73
2023-02-11T09:01:33.556Z,43.83
2023-02-11T09:04:20.147Z,45.63
2023-02-11T09:07:06.693Z,47.80
2023-02-11T09:09:53.202Z,46.57
2023-02-11T09:12:39.693Z,42.77
2023-02-11T09:15:26.214Z,48.90
2023-02-11T09:18:12.724Z,44.33
2023-02-11T09:20:59.244Z,48.37
2023-02-11T09:23:45.753Z,47.60
2023-02-11T09:26:32.274Z,45.50
2023-02-11T09:29:18.839Z,43.97
2023-02-11T09:32:07.281Z,45.47
2023-02-11T09:34:55.939Z,45.20
2023-02-11T09:37:42.414Z,46.00
2023-02-11T09:40:28.947Z,48.53
2023-02-11T09:43:15.455Z,45.90
2023-02-11T09:46:02.025Z,44.00
2023-02-11T09:48:48.581Z,43.23
2023-02-11T09:51:35.108Z,43.17
2023-02-11T09:54:21.641Z,42.97
2023-02-11T09:57:19.482Z,45.43
2023-02-11T10:00:13.221Z,42.53
2023-02-11T10:02:59.746Z,49.53
2023-02-11T10:05:46.300Z,46.03
2023-02-11T10:08:32.820Z,44.37
2023-02-11T10:11:30.942Z,43.97
2023-02-11T10:14:17.948Z,44.97
2023-02-11T10:17:04.467Z,42.37
2023-02-11T10:19:50.992Z,45.37
2023-02-11T10:22:37.484Z,41.47
2023-02-11T10:25:24.062Z,40.13
2023-02-11T10:28:10.613Z,47.20
2023-02-11T10:30:57.218Z,44.57
2023-02-11T10:33:43.815Z,46.00
2023-02-11T10:36:30.341Z,41.40
2023-02-11T10:39:16.921Z,47.20
2023-02-11T10:42:03.413Z,46.43
2023-02-11T10:44:49.972Z,46.13
2023-02-11T10:47:36.498Z,45.53
2023-02-11T10:50:23.029Z,40.63
2023-02-11T10:53:09.550Z,36.73
2023-02-11T10:55:56.092Z,34.23
2023-02-11T10:58:42.748Z,38.83
2023-02-11T11:01:29.388Z,32.63
2023-02-11T11:04:16.013Z,41.87
2023-02-11T11:07:02.604Z,41.03
2023-02-11T11:09:49.177Z,41.23
2023-02-11T11:12:35.735Z,36.90
2023-02-11T11:15:22.229Z,40.90
2023-02-11T11:18:20.851Z,36.33
2023-02-11T11:21:08.765Z,41.83
2023-02-11T11:23:55.335Z,48.83
2023-02-11T11:26:41.822Z,38.60
2023-02-11T11:29:28.317Z,40.97
2023-02-11T11:32:14.848Z,40.30
2023-02-11T11:35:01.372Z,38.53
2023-02-11T11:37:48.028Z,41.47
2023-02-11T11:40:34.547Z,30.67
2023-02-11T11:43:23.270Z,34.30
2023-02-11T11:46:10.025Z,33.30
2023-02-11T11:48:56.590Z,35.50
2023-02-11T11:51:43.077Z,31.47
2023-02-11T11:54:29.616Z,31.07
2023-02-11T11:57:16.142Z,31.13
2023-02-11T12:00:02.685Z,33.17
2023-02-11T12:02:49.205Z,30.53
2023-02-11T12:05:35.772Z,32.77
2023-02-11T12:08:22.308Z,32.80
2023-02-11T12:11:08.874Z,31.03
2023-02-11T12:13:55.354Z,25.13
2023-02-11T12:16:41.968Z,24.03
2023-02-11T12:19:28.537Z,31.70
2023-02-11T12:22:15.051Z,33.70
2023-02-11T12:25:01.604Z,33.40
2023-02-11T12:27:48.136Z,32.67
2023-02-11T12:30:34.731Z,25.30
2023-02-11T12:33:21.305Z,29.20
2023-02-11T12:36:07.824Z,29.90
2023-02-11T12:38:54.347Z,26.60
2023-02-11T12:41:40.883Z,29.70
2023-02-11T12:44:27.440Z,29.87
2023-02-11T12:47:14.280Z,23.73
2023-02-11T12:50:00.821Z,25.20
2023-02-11T12:52:47.363Z,22.97
2023-02-11T12:55:33.921Z,25.57
2023-02-11T12:58:20.442Z,22.07
2023-02-11T13:01:07.006Z,22.87
2023-02-11T13:03:53.507Z,21.73
2023-02-11T13:06:40.005Z,22.80
2023-02-11T13:09:26.555Z,26.93
2023-02-11T13:12:13.114Z,23.23
2023-02-11T13:14:59.637Z,28.17
2023-02-11T13:17:46.298Z,26.10
2023-02-11T13:20:32.816Z,26.17
2023-02-11T13:23:19.322Z,23.67
2023-02-11T13:26:05.849Z,25.53
2023-02-11T13:28:52.398Z,29.40
2023-02-11T13:31:39.008Z,25.80
2023-02-11T13:34:25.631Z,29.20
2023-02-11T13:37:12.159Z,36.27
2023-02-11T13:39:58.709Z,25.17
2023-02-11T13:42:45.234Z,24.17
2023-02-11T13:45:31.781Z,33.27
2023-02-11T13:48:18.300Z,28.97
2023-02-11T13:51:04.783Z,27.57
2023-02-11T13:53:51.323Z,25.13
2023-02-11T13:56:37.826Z,23.63
2023-02-11T13:59:24.343Z,26.03
2023-02-11T14:02:10.926Z,26.73
2023-02-11T14:04:57.535Z,25.00
2023-02-11T14:07:44.079Z,25.10
2023-02-11T14:10:30.550Z,23.77
2023-02-11T14:13:17.099Z,22.13
2023-02-11T14:16:03.687Z,28.40
2023-02-11T14:18:50.230Z,23.10
2023-02-11T14:21:36.744Z,27.27
2023-02-11T14:24:23.296Z,25.83
2023-02-11T14:27:09.810Z,25.87
2023-02-11T14:29:56.361Z,29.57
2023-02-11T14:32:42.847Z,27.47
2023-02-11T14:35:29.401Z,23.10
2023-02-11T14:38:15.922Z,27.03
2023-02-11T14:41:02.479Z,28.20
2023-02-11T14:43:48.961Z,25.03
2023-02-11T14:46:35.567Z,28.73
2023-02-11T14:49:22.113Z,27.43
2023-02-11T14:52:08.640Z,28.57
2023-02-11T14:54:55.216Z,25.90
2023-02-11T14:57:41.733Z,28.43
2023-02-11T15:00:28.415Z,29.53
2023-02-11T15:03:14.944Z,23.73
2023-02-11T15:06:01.495Z,25.53
2023-02-11T15:08:47.982Z,25.87
2023-02-11T15:11:35.506Z,26.93
2023-02-11T15:14:22.030Z,25.53
2023-02-11T15:17:08.576Z,24.97
2023-02-11T15:19:55.109Z,27.80
2023-02-11T15:22:41.620Z,27.70
2023-02-11T15:25:28.166Z,24.10
2023-02-11T15:28:14.744Z,27.17
2023-02-11T15:31:01.403Z,26.90
2023-02-11T15:33:48.022Z,28.43
2023-02-11T15:36:34.530Z,27.47
2023-02-11T15:39:22.793Z,25.93
2023-02-11T15:42:09.321Z,25.63
2023-02-11T15:44:56.875Z,27.10
2023-02-11T15:47:43.461Z,28.07
2023-02-11T15:50:29.996Z,26.53
2023-02-11T15:53:16.479Z,25.97
2023-02-11T15:56:03.007Z,29.57
2023-02-11T15:58:49.498Z,28.30
2023-02-11T16:01:36.077Z,24.70
2023-02-11T16:04:22.661Z,24.50
2023-02-11T16:07:09.175Z,29.03
2023-02-11T16:09:55.711Z,25.17
2023-02-11T16:12:42.234Z,25.23
2023-02-11T16:15:28.780Z,27.23
2023-02-11T16:18:15.307Z,23.93
2023-02-11T16:21:01.822Z,25.97
2023-02-11T16:23:48.302Z,23.73
2023-02-11T16:26:34.820Z,25.20
2023-02-11T16:29:21.336Z,27.60
2023-02-11T16:32:07.966Z,27.13
2023-02-11T16:34:54.518Z,29.10
2023-02-11T16:37:41.051Z,28.40
2023-02-11T16:40:27.601Z,29.67
2023-02-11T16:43:14.131Z,29.50
2023-02-11T16:46:00.659Z,26.40
2023-02-11T16:48:47.214Z,26.10
2023-02-11T16:51:33.748Z,26.97
2023-02-11T16:54:20.240Z,28.97
2023-02-11T16:57:06.891Z,30.97
2023-02-11T16:59:53.411Z,28.73
2023-02-11T17:02:39.921Z,28.57
2023-02-11T17:05:26.457Z,29.07
2023-02-11T17:08:12.999Z,30.57
2023-02-11T17:10:59.478Z,28.00
2023-02-11T17:13:45.989Z,30.70
2023-02-11T17:16:32.555Z,32.27
2023-02-11T17:19:22.282Z,31.83
2023-02-11T17:22:08.762Z,29.77
2023-02-11T17:24:55.310Z,29.77
2023-02-11T17:27:41.834Z,30.97
2023-02-11T17:30:28.370Z,29.93
2023-02-11T17:33:14.871Z,30.07
2023-02-11T17:36:01.402Z,28.30
2023-02-11T17:38:47.956Z,32.83
2023-02-11T17:41:34.511Z,33.43
2023-02-11T17:44:21.000Z,29.40
2023-02-11T17:47:07.733Z,35.00
2023-02-11T17:49:54.256Z,35.03
2023-02-11T17:52:40.823Z,32.03
2023-02-11T17:55:27.333Z,33.43
2023-02-11T17:58:13.828Z,33.97
2023-02-11T18:01:00.375Z,33.93
2023-02-11T18:03:46.907Z,36.27
2023-02-11T18:06:33.429Z,34.77
2023-02-11T18:09:19.933Z,34.90
2023-02-11T18:12:06.432Z,46.67
2023-02-11T18:14:52.963Z,42.83
2023-02-11T18:17:39.526Z,32.87
2023-02-11T18:20:26.037Z,40.27
2023-02-11T18:23:12.562Z,35.97
2023-02-11T18:25:59.056Z,32.83
2023-02-11T18:28:46.191Z,34.00
2023-02-11T18:31:32.835Z,33.17
2023-02-11T18:34:19.447Z,35.07
2023-02-11T18:37:05.969Z,31.60
2023-02-11T18:39:52.504Z,32.00
2023-02-11T18:42:39.031Z,34.30
2023-02-11T18:45:25.556Z,33.73
2023-02-11T18:48:12.094Z,33.40
2023-02-11T18:50:58.644Z,33.10
2023-02-11T18:53:45.162Z,31.00
2023-02-11T18:56:31.688Z,33.37
2023-02-11T18:59:18.208Z,34.60
2023-02-11T19:02:04.724Z,34.53
2023-02-11T19:04:51.258Z,32.83
2023-02-11T19:07:37.782Z,32.77
2023-02-11T19:10:24.292Z,36.70
2023-02-11T19:13:10.808Z,34.67
2023-02-11T19:15:57.329Z,33.73
2023-02-11T19:18:43.838Z,43.97
2023-02-11T19:21:30.326Z,35.33
2023-02-11T19:24:16.885Z,37.30
2023-02-11T19:27:03.366Z,36.00
2023-02-11T19:29:49.881Z,36.97
2023-02-11T19:32:36.536Z,33.00
2023-02-11T19:35:23.065Z,35.73
2023-02-11T19:38:09.576Z,36.97
2023-02-11T19:40:56.118Z,36.67
2023-02-11T19:43:42.635Z,32.63
2023-02-11T19:46:29.228Z,33.73
2023-02-11T19:49:15.766Z,35.10
2023-02-11T19:52:02.323Z,40.17
2023-02-11T19:54:48.808Z,33.27
2023-02-11T19:57:35.372Z,32.47
2023-02-11T20:00:21.897Z,36.23
2023-02-11T20:03:08.528Z,34.03
2023-02-11T20:05:55.007Z,37.87
2023-02-11T20:08:41.526Z,32.80
2023-02-11T20:11:28.164Z,36.50
2023-02-11T20:14:14.873Z,32.83
2023-02-11T20:17:01.434Z,36.47
2023-02-11T20:19:47.968Z,36.43
2023-02-11T20:22:34.502Z,33.63
2023-02-11T20:25:21.018Z,35.03
2023-02-11T20:28:07.561Z,36.47
2023-02-11T20:30:54.114Z,31.27
2023-02-11T20:33:40.653Z,33.37
2023-02-11T20:36:27.172Z,36.07
2023-02-11T20:39:13.673Z,36.73
2023-02-11T20:42:00.194Z,35.67
2023-02-11T20:44:46.750Z,34.10
2023-02-11T20:47:33.282Z,34.00
2023-02-11T20:50:19.772Z,34.10
2023-02-11T20:53:06.306Z,35.67
2023-02-11T20:55:53.982Z,36.80
2023-02-11T20:58:40.552Z,35.83
2023-02-11T21:01:27.119Z,35.93
2023-02-11T21:04:13.901Z,36.27
2023-02-11T21:07:00.504Z,34.37
2023-02-11T21:09:47.042Z,36.57
2023-02-11T21:12:33.551Z,32.83
2023-02-11T21:15:20.093Z,35.30
2023-02-11T21:18:07.659Z,35.40
2023-02-11T21:20:54.212Z,34.23
2023-02-11T21:23:40.696Z,36.50
2023-02-11T21:26:27.208Z,36.13
2023-02-11T21:29:13.692Z,39.00
2023-02-11T21:32:00.291Z,39.73
2023-02-11T21:34:46.803Z,41.93
2023-02-11T21:37:33.341Z,37.40
2023-02-11T21:40:22.791Z,36.20
2023-02-11T21:43:09.652Z,37.63
2023-02-11T21:45:56.355Z,36.10
2023-02-11T21:48:43.093Z,41.53
2023-02-11T21:51:29.572Z,40.53
2023-02-11T21:54:16.075Z,35.10
2023-02-11T21:57:02.607Z,40.03
2023-02-11T21:59:49.164Z,41.43
2023-02-11T22:02:35.696Z,40.13
2023-02-11T22:05:22.230Z,42.47
2023-02-11T22:08:08.710Z,42.57
2023-02-11T22:10:55.264Z,42.40
2023-02-11T22:13:41.785Z,41.10
2023-02-11T22:16:28.398Z,44.20
2023-02-11T22:19:14.959Z,46.00
2023-02-11T22:22:01.494Z,41.90
2023-02-11T22:24:47.977Z,42.50
2023-02-11T22:27:34.562Z,38.57
2023-02-11T22:30:21.099Z,38.00
2023-02-11T22:33:07.657Z,48.17
2023-02-11T22:35:54.457Z,50.27
2023-02-11T22:38:41.170Z,47.20
2023-02-11T22:41:27.688Z,45.40
2023-02-11T22:44:14.212Z,49.87
2023-02-11T22:47:00.729Z,51.00
2023-02-11T22:49:47.242Z,43.93
2023-02-11T22:52:33.714Z,51.07
2023-02-11T22:55:20.243Z,47.17
2023-02-11T22:58:06.764Z,46.23
2023-02-11T23:00:53.278Z,47.53
2023-02-11T23:03:39.784Z,48.13
2023-02-11T23:06:26.319Z,52.30
2023-02-11T23:09:12.803Z,48.53
2023-02-11T23:11:59.290Z,52.93
2023-02-11T23:14:45.795Z,49.57
2023-02-11T23:17:32.322Z,45.30
2023-02-11T23:20:18.837Z,48.77
2023-02-11T23:23:05.400Z,56.80
2023-02-11T23:25:51.908Z,49.10
2023-02-11T23:28:38.490Z,50.73
2023-02-11T23:31:25.110Z,51.00
2023-02-11T23:34:11.714Z,49.97
2023-02-11T23:36:58.234Z,50.13
2023-02-11T23:39:44.795Z,49.87
2023-02-11T23:42:31.320Z,45.33
2023-02-11T23:45:17.864Z,51.87
2023-02-11T23:48:04.380Z,52.70
2023-02-11T23:50:50.910Z,49.70
2023-02-11T23:53:37.421Z,46.97
2023-02-11T23:56:23.920Z,48.27
2023-02-11T23:59:10.466Z,52.27
